Latest  Newer  Older  Last 2 hours slideshow  Last 24 hours slideshow  Refresh every 5 minutes 
Current image  Latest image  Rain/snow radar  Cloud coverage sat images 

All time is UTC (add 2 hours to UTC in wintertime, 3 hours to UTC in DST for Latvia local time)

2020/02/22 22:50 EVRA 222250Z 24010KT 180V280 9999 BKN035 BKN047 05/01 Q0991 R18/290195 NOSIG
2020/02/22 22:50 EVLA 222250Z AUTO 26025KT 9999 FEW083/// SCT140/// 05/01 Q0994
2020/02/22 22:50 EVVA 222250Z AUTO 26023G33KT 9999 SCT027 SCT034 05/03 Q0990
2020/02/22 22:50 EYKA 222250Z AUTO 27013KT 9999 FEW017/// OVC025/// 04/02 Q0999 REUP
2020/02/22 22:50 EYPA 222250Z AUTO 27010KT 230V310 9999 BKN075/// BKN100/// 04/02 Q0997
2020/02/22 22:50 EYSA 222250Z 24011KT 9999 FEW008 SCT029 02/01 Q0995 R14L/29//95 R14R/29//95 BLU NOSIG
2020/02/22 22:50 EYVI 222250Z 24016KT 9999 SCT027CB BKN057 06/01 Q0999 R19/2///95 TEMPO 0800 +SHRASN
2020/02/22 08:50 EEKA 220850Z 20016KT 160V240 9000 RA BKN009 OVC016 05/04 Q0995
2020/02/22 23:00 EEKE 222300Z AUTO 27015G26KT 230V300 9999NDV SCT024 BKN032 OVC040 05/01 Q0985
2020/02/22 13:50 EEPU 221350Z 19020G36KT 160V230 3600 -RA BR BKN008 OVC014 04/03 Q0991
2020/02/22 22:50 EETN 222250Z 25019KT 9999 SCT023 04/01 Q0979 R08/290295
2020/02/22 22:50 EETU 222250Z AUTO 23019G29KT 9999 BKN022/// BKN030/// 04/02 Q0984
   RIGA AIRPORT     EVRA               56 55N  023 58E   10   X     T          6 LV
   LIEPAJA INTL     EVLA        26406  56 31N  021 06E    4   X                8 LV
   VENTPILS         EVVA               57 21N  021 33E    6   X                8 LV
   KAUNAS           EYKA               54 54N  023 55E   77   X     T          6 LT
   PALANGA INTL     EYPA               55 55N  021 03E   10   X                6 LT
   SIAULIAI INTL    EYSA               55 54N  023 24E  135   X     T          6 LT
   VILNIUS INTL     EYVI        26730  54 38N  025 17E  197   X     T          6 LT
   KARDLA           EEKA        26116  58 59N  022 50E    4   X                8 EE
   KURESSAARE       EEKE               58 14N  022 31E    4   X                8 EE
   PARNU            EEPU               58 25N  024 28E   14   X                8 EE
   TALLINN          EETN        26038  59 24N  024 49E   40   X     T          8 EE
   TARTU            EETU               58 19N  026 41E   67   X                8 EE